createdAt,value
2022-10-17T12:05:43.165Z,22.96
2022-10-17T12:06:09.997Z,22.98
2022-10-17T12:06:49.896Z,22.98
2022-10-17T12:07:48.335Z,22.97
2022-10-17T12:08:13.112Z,23.02
2022-10-17T12:08:38.579Z,23.02
2022-10-17T12:09:19.228Z,23.04
2022-10-17T12:09:55.561Z,23.03
2022-10-17T12:10:31.909Z,23.05
2022-10-17T12:11:04.304Z,23.05
2022-10-17T12:11:54.053Z,23.04
2022-10-17T12:12:32.309Z,23.05
2022-10-17T12:12:54.473Z,23.07
2022-10-17T12:13:28.048Z,23.05
2022-10-17T12:13:53.082Z,23.06
2022-10-17T12:14:36.116Z,23.05
2022-10-17T12:15:13.221Z,23.06
2022-10-17T12:15:34.967Z,23.06
2022-10-17T12:15:58.341Z,23.07
2022-10-17T12:16:20.172Z,23.09
2022-10-17T12:16:44.418Z,23.12
2022-10-17T12:17:30.844Z,23.14
2022-10-17T12:17:56.939Z,23.12
2022-10-17T12:18:19.317Z,23.12
2022-10-17T12:18:41.100Z,23.13
2022-10-17T12:19:03.040Z,23.11
2022-10-17T12:19:26.659Z,23.11
2022-10-17T12:19:48.532Z,23.09
2022-10-17T12:20:25.296Z,23.08
2022-10-17T12:21:00.760Z,23.09
2022-10-17T12:21:22.547Z,23.09
2022-10-17T12:21:59.268Z,23.08
2022-10-17T12:22:24.139Z,23.11
2022-10-17T12:22:50.172Z,23.09
2022-10-17T12:23:11.869Z,23.11
2022-10-17T12:23:36.514Z,23.13
2022-10-17T12:23:58.359Z,23.16
2022-10-17T12:24:54.485Z,23.16
2022-10-17T12:25:53.695Z,23.13
2022-10-17T12:26:26.035Z,23.15
2022-10-17T12:26:47.844Z,23.14
2022-10-17T12:27:36.419Z,23.17
2022-10-17T12:28:13.428Z,23.17
2022-10-17T12:28:37.816Z,23.18
2022-10-17T12:28:59.548Z,23.19
2022-10-17T12:29:29.139Z,23.20
2022-10-17T12:29:58.400Z,23.18
2022-10-17T12:30:26.481Z,23.17
2022-10-17T12:30:52.408Z,23.21
2022-10-17T12:31:17.569Z,23.19
2022-10-17T12:31:40.076Z,23.22
2022-10-17T12:32:13.241Z,23.24
2022-10-17T12:33:00.036Z,23.27
2022-10-17T12:33:22.404Z,23.26
2022-10-17T12:33:46.964Z,23.26
2022-10-17T12:34:18.575Z,23.23
2022-10-17T12:34:40.539Z,23.20
2022-10-17T12:35:02.567Z,23.23
2022-10-17T12:35:26.373Z,23.23
2022-10-17T12:36:11.500Z,23.23
2022-10-17T12:36:33.318Z,23.25
2022-10-17T12:36:55.108Z,23.26
2022-10-17T12:37:39.371Z,23.25
2022-10-17T12:38:20.597Z,23.27
2022-10-17T12:38:43.091Z,23.27
2022-10-17T12:39:11.768Z,23.26
2022-10-17T12:39:33.452Z,23.29
2022-10-17T12:39:55.338Z,23.28
2022-10-17T12:40:35.105Z,23.30
2022-10-17T12:40:58.266Z,23.27
2022-10-17T12:41:38.500Z,23.28
2022-10-17T12:42:00.270Z,23.30
2022-10-17T12:42:33.375Z,23.31
2022-10-17T12:42:55.216Z,23.33
2022-10-17T12:43:17.259Z,23.32
2022-10-17T12:44:21.526Z,23.35
2022-10-17T12:44:44.830Z,23.33
2022-10-17T12:45:44.861Z,23.33
2022-10-17T12:46:08.504Z,23.31
2022-10-17T12:46:51.302Z,23.31
2022-10-17T12:47:14.132Z,23.29
2022-10-17T12:47:39.186Z,23.31
2022-10-17T12:48:01.258Z,23.31
2022-10-17T12:48:35.121Z,23.32
2022-10-17T12:49:02.424Z,23.33
2022-10-17T12:49:38.298Z,23.32
2022-10-17T12:50:00.151Z,23.31
2022-10-17T12:51:17.731Z,23.32
2022-10-17T12:52:24.459Z,23.34
2022-10-17T12:52:46.248Z,23.34
2022-10-17T12:53:08.925Z,23.33
2022-10-17T12:53:42.344Z,23.31
2022-10-17T12:54:15.456Z,23.33
2022-10-17T12:54:53.507Z,23.34
2022-10-17T12:55:24.784Z,23.33
2022-10-17T12:55:46.699Z,23.37
2022-10-17T12:56:08.319Z,23.34
2022-10-17T12:56:39.120Z,23.32
2022-10-17T12:57:00.964Z,23.32
2022-10-17T12:57:47.918Z,23.33
2022-10-17T12:58:14.943Z,23.32
2022-10-17T12:58:37.194Z,23.32
2022-10-17T12:58:59.978Z,23.32
2022-10-17T12:59:28.083Z,23.32
2022-10-17T12:59:50.301Z,23.32
2022-10-17T13:00:37.262Z,23.32
2022-10-17T13:01:22.446Z,23.31
2022-10-17T13:01:44.362Z,23.32
2022-10-17T13:02:13.784Z,23.31
2022-10-17T13:02:36.138Z,23.31
2022-10-17T13:03:13.438Z,23.33
2022-10-17T13:03:41.819Z,23.33
2022-10-17T13:04:06.345Z,23.33
2022-10-17T13:04:29.763Z,23.35
2022-10-17T13:04:55.829Z,23.34
2022-10-17T13:05:38.667Z,23.34
2022-10-17T13:06:06.462Z,23.35
2022-10-17T13:06:31.398Z,23.36
2022-10-17T13:06:55.643Z,23.37
2022-10-17T13:07:21.994Z,23.38
2022-10-17T13:07:47.437Z,23.36
2022-10-17T13:08:37.100Z,23.36
2022-10-17T13:09:04.447Z,23.38
2022-10-17T13:09:34.266Z,23.39
2022-10-17T13:09:56.504Z,23.39
2022-10-17T13:10:21.587Z,23.39
2022-10-17T13:10:45.743Z,23.39
2022-10-17T13:11:09.230Z,23.40
2022-10-17T13:11:34.849Z,23.40
2022-10-17T13:11:59.143Z,23.40
2022-10-17T13:12:25.542Z,23.39
2022-10-17T13:12:48.158Z,23.39
2022-10-17T13:13:23.919Z,23.37
2022-10-17T13:13:52.241Z,23.39
2022-10-17T13:14:16.688Z,23.39
2022-10-17T13:14:40.640Z,23.39
2022-10-17T13:15:04.240Z,23.40
2022-10-17T13:15:26.260Z,23.40
2022-10-17T13:15:53.079Z,23.38
2022-10-17T13:16:31.067Z,23.40
2022-10-17T13:17:01.347Z,23.44
2022-10-17T13:17:30.176Z,23.46
2022-10-17T13:17:59.784Z,23.45
2022-10-17T13:18:24.851Z,23.45
2022-10-17T13:18:52.657Z,23.47
2022-10-17T13:19:16.879Z,23.47
2022-10-17T13:19:43.710Z,23.48
2022-10-17T13:20:05.724Z,23.48
2022-10-17T13:20:31.580Z,23.50
2022-10-17T13:21:06.716Z,23.46
2022-10-17T13:21:29.680Z,23.45
2022-10-17T13:22:06.527Z,23.46
2022-10-17T13:22:30.622Z,23.44
2022-10-17T13:22:53.098Z,23.43
2022-10-17T13:23:30.938Z,23.43
2022-10-17T13:23:54.511Z,23.45
2022-10-17T13:24:35.944Z,23.46
2022-10-17T13:25:15.386Z,23.47
2022-10-17T13:25:39.536Z,23.46
2022-10-17T13:26:08.159Z,23.46
2022-10-17T13:26:29.968Z,23.47
2022-10-17T13:26:51.858Z,23.47
2022-10-17T13:27:25.366Z,23.45
2022-10-17T13:27:48.320Z,23.46
2022-10-17T13:28:12.804Z,23.46
2022-10-17T13:28:38.491Z,23.48
2022-10-17T13:29:14.459Z,23.48
2022-10-17T13:29:44.046Z,23.49
2022-10-17T13:30:20.882Z,23.47
2022-10-17T13:30:49.481Z,23.46
2022-10-17T13:31:29.946Z,23.48
2022-10-17T13:31:55.488Z,23.48
2022-10-17T13:32:17.303Z,23.48
2022-10-17T13:32:41.265Z,23.51
2022-10-17T13:33:03.938Z,23.52
2022-10-17T13:33:39.441Z,23.53
2022-10-17T13:34:03.499Z,23.51
2022-10-17T13:34:26.322Z,23.51
2022-10-17T13:35:04.741Z,23.50
2022-10-17T13:35:55.465Z,23.52
2022-10-17T13:36:19.796Z,23.51
2022-10-17T13:36:46.637Z,23.49
2022-10-17T13:37:15.983Z,23.52
2022-10-17T13:37:39.739Z,23.51
2022-10-17T13:38:03.616Z,23.52
2022-10-17T13:38:28.763Z,23.53
2022-10-17T13:38:50.839Z,23.52
2022-10-17T13:39:19.669Z,23.55
2022-10-17T13:40:11.361Z,23.53
2022-10-17T13:40:44.669Z,23.56
2022-10-17T13:41:34.692Z,23.56
2022-10-17T13:41:58.281Z,23.57
2022-10-17T13:42:31.837Z,23.57
2022-10-17T13:42:56.510Z,23.57
2022-10-17T13:43:20.973Z,23.58
2022-10-17T13:43:42.851Z,23.61
2022-10-17T13:44:11.809Z,23.62
2022-10-17T13:44:35.226Z,23.62
2022-10-17T13:44:58.379Z,23.62
2022-10-17T13:45:30.698Z,23.65
2022-10-17T13:45:53.665Z,23.62
2022-10-17T13:46:38.359Z,23.62
2022-10-17T13:47:01.701Z,23.60
2022-10-17T13:47:28.981Z,23.61
2022-10-17T13:47:50.879Z,23.59
2022-10-17T13:48:25.890Z,23.60
2022-10-17T13:48:48.929Z,23.60
2022-10-17T13:49:15.593Z,23.59
2022-10-17T13:49:41.808Z,23.60
2022-10-17T13:50:12.784Z,23.61
2022-10-17T13:50:44.955Z,23.62
2022-10-17T13:51:10.339Z,23.62
2022-10-17T13:51:33.693Z,23.61
2022-10-17T13:51:56.398Z,23.60
2022-10-17T13:52:20.586Z,23.61
2022-10-17T13:52:42.387Z,23.63
2022-10-17T13:53:17.500Z,23.63
2022-10-17T13:53:44.138Z,23.63
2022-10-17T13:54:19.693Z,23.61
2022-10-17T13:54:43.684Z,23.63
2022-10-17T13:55:17.881Z,23.64
2022-10-17T13:55:39.776Z,23.63
2022-10-17T13:56:27.335Z,23.62
2022-10-17T13:56:45.779Z,23.62
2022-10-17T13:57:29.507Z,23.61
2022-10-17T13:57:52.968Z,23.58
2022-10-17T13:58:17.998Z,23.57
2022-10-17T13:58:43.076Z,23.57
2022-10-17T13:59:25.374Z,23.58
2022-10-17T13:59:50.477Z,23.60
2022-10-17T14:00:20.550Z,23.61
2022-10-17T14:00:42.599Z,23.62
2022-10-17T14:01:04.498Z,23.62
2022-10-17T14:01:27.869Z,23.62
2022-10-17T14:01:50.199Z,23.62
2022-10-17T14:02:16.275Z,23.63
2022-10-17T14:02:38.220Z,23.62
2022-10-17T14:03:00.534Z,23.63
2022-10-17T14:03:23.099Z,23.62
2022-10-17T14:03:57.076Z,23.62
2022-10-17T14:04:24.132Z,23.62
2022-10-17T14:05:15.048Z,23.62
2022-10-17T14:05:28.165Z,23.62
2022-10-17T14:06:04.845Z,23.61
2022-10-17T14:06:28.338Z,23.63
2022-10-17T14:06:52.354Z,23.62
2022-10-17T14:07:25.705Z,23.63
2022-10-17T14:08:20.192Z,23.60
2022-10-17T14:08:55.410Z,23.62
2022-10-17T14:09:24.846Z,23.64
2022-10-17T14:09:47.020Z,23.62
2022-10-17T14:10:28.607Z,23.63
2022-10-17T14:10:50.481Z,23.65
2022-10-17T14:11:42.776Z,23.65
2022-10-17T14:12:10.884Z,23.63
2022-10-17T14:12:34.558Z,23.66
2022-10-17T14:12:57.080Z,23.64
2022-10-17T14:13:31.339Z,23.64
2022-10-17T14:13:55.344Z,23.65
2022-10-17T14:14:23.816Z,23.65
2022-10-17T14:15:09.797Z,23.66
2022-10-17T14:15:37.227Z,23.67
2022-10-17T14:16:01.636Z,23.65
2022-10-17T14:16:24.777Z,23.67
2022-10-17T14:16:46.679Z,23.67
2022-10-17T14:17:16.077Z,23.68
2022-10-17T14:17:38.838Z,23.66
2022-10-17T14:18:09.276Z,23.63
2022-10-17T14:18:36.356Z,23.63
2022-10-17T14:18:58.647Z,23.63
2022-10-17T14:19:27.200Z,23.62
2022-10-17T14:20:14.086Z,23.63
2022-10-17T14:21:25.561Z,23.63
2022-10-17T14:21:43.281Z,23.63
2022-10-17T14:22:38.375Z,23.64
2022-10-17T14:23:44.224Z,23.68
2022-10-17T14:24:21.906Z,23.69
2022-10-17T14:24:44.167Z,23.68
2022-10-17T14:25:06.285Z,23.67
2022-10-17T14:25:38.396Z,23.68
2022-10-17T14:26:23.198Z,23.68
2022-10-17T14:26:48.984Z,23.69
2022-10-17T14:27:39.850Z,23.67
2022-10-17T14:28:03.810Z,23.66
2022-10-17T14:28:31.494Z,23.67
2022-10-17T14:29:18.357Z,23.66
2022-10-17T14:29:54.096Z,23.63
2022-10-17T14:30:56.916Z,23.66
2022-10-17T14:31:23.044Z,23.65
2022-10-17T14:31:44.835Z,23.63
2022-10-17T14:32:10.627Z,23.64
2022-10-17T14:32:35.353Z,23.66
2022-10-17T14:32:59.419Z,23.66
2022-10-17T14:33:28.127Z,23.69
2022-10-17T14:33:51.499Z,23.69
2022-10-17T14:34:24.456Z,23.67
2022-10-17T14:34:47.059Z,23.69
2022-10-17T14:35:37.398Z,23.66
2022-10-17T14:36:01.095Z,23.64
2022-10-17T14:36:36.139Z,23.62
2022-10-17T14:36:58.398Z,23.60
2022-10-17T14:37:45.645Z,23.60
2022-10-17T14:38:08.016Z,23.61
2022-10-17T14:38:30.869Z,23.59
2022-10-17T14:38:52.690Z,23.58
2022-10-17T14:39:25.247Z,23.57
2022-10-17T14:39:55.307Z,23.56
2022-10-17T14:40:19.950Z,23.57
2022-10-17T14:40:52.690Z,23.57
2022-10-17T14:41:43.278Z,23.56
2022-10-17T14:42:05.787Z,23.53
2022-10-17T14:42:27.480Z,23.54
2022-10-17T14:42:50.276Z,23.55
2022-10-17T14:43:18.818Z,23.55
2022-10-17T14:43:40.757Z,23.55
2022-10-17T14:44:08.237Z,23.56
2022-10-17T14:44:32.447Z,23.58
2022-10-17T14:44:57.709Z,23.59
2022-10-17T14:45:34.531Z,23.58
2022-10-17T14:46:01.370Z,23.57
2022-10-17T14:46:24.012Z,23.58
2022-10-17T14:46:49.711Z,23.59
2022-10-17T14:47:42.125Z,23.58
2022-10-17T14:48:14.610Z,23.57
2022-10-17T14:48:36.215Z,23.59
2022-10-17T14:49:19.368Z,23.60
2022-10-17T14:49:43.535Z,23.62
2022-10-17T14:50:25.107Z,23.63
2022-10-17T14:51:09.973Z,23.64
2022-10-17T14:51:44.686Z,23.63
2022-10-17T14:52:18.168Z,23.64
2022-10-17T14:52:40.986Z,23.64
2022-10-17T14:53:11.425Z,23.65
2022-10-17T14:53:33.381Z,23.63
2022-10-17T14:54:05.302Z,23.63
2022-10-17T14:54:30.077Z,23.64
2022-10-17T14:54:52.066Z,23.65
2022-10-17T14:55:25.010Z,23.64
2022-10-17T14:56:01.478Z,23.66
2022-10-17T14:56:26.157Z,23.65
2022-10-17T14:56:53.027Z,23.65
2022-10-17T14:57:46.898Z,23.62
2022-10-17T14:58:31.033Z,23.63
2022-10-17T14:58:53.111Z,23.65
2022-10-17T14:59:30.041Z,23.63
2022-10-17T14:59:59.266Z,23.64
2022-10-17T15:00:22.417Z,23.63
2022-10-17T15:00:44.217Z,23.65
2022-10-17T15:01:06.189Z,23.65
2022-10-17T15:01:27.957Z,23.62
2022-10-17T15:01:50.165Z,23.62
2022-10-17T15:02:12.159Z,23.62
2022-10-17T15:02:34.172Z,23.63
2022-10-17T15:02:56.560Z,23.62
2022-10-17T15:03:19.524Z,23.62
2022-10-17T15:03:41.402Z,23.62
2022-10-17T15:04:03.403Z,23.63
2022-10-17T15:04:25.247Z,23.62
2022-10-17T15:04:47.026Z,23.60
2022-10-17T15:05:12.987Z,23.61
2022-10-17T15:05:35.920Z,23.60
2022-10-17T15:05:58.504Z,23.60
2022-10-17T15:06:38.488Z,23.57
2022-10-17T15:07:00.247Z,23.57
2022-10-17T15:07:22.467Z,23.59
2022-10-17T15:07:44.253Z,23.57
2022-10-17T15:08:13.227Z,23.56
2022-10-17T15:08:35.212Z,23.57
2022-10-17T15:08:57.809Z,23.57
2022-10-17T15:09:19.567Z,23.57
2022-10-17T15:09:42.742Z,23.57
2022-10-17T15:10:05.478Z,23.57
2022-10-17T15:10:37.501Z,23.55
2022-10-17T15:10:59.297Z,23.55
2022-10-17T15:11:21.081Z,23.56
2022-10-17T15:11:42.846Z,23.56
2022-10-17T15:12:07.487Z,23.55
2022-10-17T15:12:29.515Z,23.53
2022-10-17T15:12:57.541Z,23.53
2022-10-17T15:13:31.218Z,23.54
2022-10-17T15:13:55.296Z,23.53
2022-10-17T15:14:17.210Z,23.53
2022-10-17T15:14:38.997Z,23.53
2022-10-17T15:15:00.866Z,23.53
2022-10-17T15:15:22.647Z,23.52
2022-10-17T15:15:44.697Z,23.50
2022-10-17T15:16:27.997Z,23.49
2022-10-17T15:16:49.787Z,23.48
2022-10-17T15:17:35.083Z,23.47
2022-10-17T15:17:56.739Z,23.48
2022-10-17T15:18:18.547Z,23.47
2022-10-17T15:18:40.215Z,23.45
2022-10-17T15:19:02.017Z,23.45
2022-10-17T15:19:23.851Z,23.44
2022-10-17T15:19:45.670Z,23.40
2022-10-17T15:20:14.466Z,23.40
2022-10-17T15:20:36.478Z,23.39
2022-10-17T15:21:04.918Z,23.36
2022-10-17T15:21:40.619Z,23.34
2022-10-17T15:22:03.907Z,23.32
2022-10-17T15:22:25.751Z,23.30
2022-10-17T15:22:48.184Z,23.32
2022-10-17T15:23:10.050Z,23.33
2022-10-17T15:23:32.028Z,23.32
2022-10-17T15:23:54.030Z,23.31
2022-10-17T15:24:16.023Z,23.29
2022-10-17T15:24:37.896Z,23.26
2022-10-17T15:24:59.661Z,23.22
2022-10-17T15:25:22.046Z,23.21
2022-10-17T15:25:43.910Z,23.18
2022-10-17T15:26:32.746Z,23.18
2022-10-17T15:26:55.369Z,23.14
2022-10-17T15:27:23.032Z,23.12
2022-10-17T15:27:44.827Z,23.11
2022-10-17T15:28:06.674Z,23.10
2022-10-17T15:28:28.573Z,23.09
2022-10-17T15:28:51.716Z,23.07
2022-10-17T15:29:16.276Z,23.06
2022-10-17T15:29:37.999Z,23.06
2022-10-17T15:29:59.787Z,23.01
2022-10-17T15:30:34.951Z,23.01
2022-10-17T15:30:56.730Z,23.02
2022-10-17T15:31:20.528Z,23.03
2022-10-17T15:31:42.400Z,23.05
2022-10-17T15:32:04.187Z,23.06
2022-10-17T15:32:26.034Z,23.03
2022-10-17T15:32:48.498Z,23.04
2022-10-17T15:33:10.237Z,23.06
2022-10-17T15:33:31.966Z,23.05
2022-10-17T15:33:53.749Z,23.07
2022-10-17T15:34:15.558Z,23.08
2022-10-17T15:34:37.436Z,23.07
2022-10-17T15:34:59.037Z,23.03
2022-10-17T15:35:21.897Z,23.01
2022-10-17T15:35:43.955Z,23.04
2022-10-17T15:36:06.027Z,22.99
2022-10-17T15:36:27.666Z,22.97
2022-10-17T15:36:51.176Z,22.96
2022-10-17T15:37:22.193Z,22.96
2022-10-17T15:37:44.645Z,22.98
2022-10-17T15:38:07.410Z,23.00
2022-10-17T15:38:29.154Z,23.01
2022-10-17T15:38:53.476Z,22.99
2022-10-17T15:39:15.230Z,22.99
2022-10-17T15:39:37.034Z,22.97
2022-10-17T15:39:58.762Z,22.94
2022-10-17T15:40:23.750Z,22.96
2022-10-17T15:40:48.988Z,22.97
2022-10-17T15:41:11.376Z,23.01
2022-10-17T15:41:33.481Z,23.01
2022-10-17T15:41:55.230Z,22.97
2022-10-17T15:42:16.969Z,22.94
2022-10-17T15:42:38.756Z,22.92
2022-10-17T15:43:00.524Z,22.95
2022-10-17T15:43:22.259Z,22.92
2022-10-17T15:43:44.040Z,22.88
2022-10-17T15:44:05.810Z,22.88
2022-10-17T15:44:27.686Z,22.90
2022-10-17T15:44:50.530Z,22.84
2022-10-17T15:45:15.465Z,22.83
2022-10-17T15:45:37.969Z,22.84
2022-10-17T15:46:00.706Z,22.84
2022-10-17T15:46:26.209Z,22.83
2022-10-17T15:46:48.006Z,22.82
2022-10-17T15:47:18.879Z,22.83
2022-10-17T15:47:40.990Z,22.80
2022-10-17T15:48:06.320Z,22.80
2022-10-17T15:48:30.066Z,22.81
2022-10-17T15:48:53.036Z,22.82
2022-10-17T15:49:17.957Z,22.80
2022-10-17T15:49:39.778Z,22.82
2022-10-17T15:50:02.245Z,22.81
2022-10-17T15:50:23.889Z,22.82
2022-10-17T15:50:46.096Z,22.82
2022-10-17T15:51:08.356Z,22.82
2022-10-17T15:51:30.185Z,22.80
2022-10-17T15:51:55.142Z,22.81
2022-10-17T15:52:17.296Z,22.76
2022-10-17T15:52:39.079Z,22.79
2022-10-17T15:53:00.876Z,22.77
2022-10-17T15:53:23.827Z,22.76
2022-10-17T15:53:45.660Z,22.75
2022-10-17T15:54:07.820Z,22.76
2022-10-17T15:54:29.607Z,22.70
2022-10-17T15:54:51.272Z,22.68
2022-10-17T15:55:13.387Z,22.68
2022-10-17T15:55:35.839Z,22.67
2022-10-17T15:55:59.459Z,22.68
2022-10-17T15:56:26.639Z,22.67
2022-10-17T15:56:55.197Z,22.63
2022-10-17T15:57:25.868Z,22.62
2022-10-17T15:57:49.286Z,22.58
2022-10-17T15:58:16.560Z,22.57
2022-10-17T15:58:40.546Z,22.56
2022-10-17T15:59:06.991Z,22.58
2022-10-17T15:59:33.767Z,22.57
2022-10-17T15:59:57.576Z,22.56
2022-10-17T16:00:22.870Z,22.52
2022-10-17T16:00:45.790Z,22.49
2022-10-17T16:01:07.705Z,22.49
2022-10-17T16:01:31.739Z,22.49
2022-10-17T16:01:53.601Z,22.51
2022-10-17T16:02:17.336Z,22.51
2022-10-17T16:02:39.109Z,22.51
2022-10-17T16:03:02.089Z,22.48
2022-10-17T16:03:23.969Z,22.45
2022-10-17T16:03:47.717Z,22.45
2022-10-17T16:04:16.301Z,22.48
2022-10-17T16:04:38.039Z,22.48
2022-10-17T16:05:00.488Z,22.51
2022-10-17T16:05:29.618Z,22.57
2022-10-17T16:05:51.355Z,22.50
2022-10-17T16:06:14.261Z,22.53
2022-10-17T16:06:36.206Z,22.53
2022-10-17T16:06:58.064Z,22.60
2022-10-17T16:07:21.367Z,22.55
2022-10-17T16:07:46.306Z,22.60
2022-10-17T16:08:08.095Z,22.61
2022-10-17T16:08:29.906Z,22.60
2022-10-17T16:08:52.429Z,22.57
2022-10-17T16:09:14.274Z,22.52
2022-10-17T16:09:37.607Z,22.53
2022-10-17T16:09:59.400Z,22.58
2022-10-17T16:10:22.859Z,22.61
2022-10-17T16:10:44.688Z,22.57
2022-10-17T16:11:06.916Z,22.61
2022-10-17T16:11:35.509Z,22.57
2022-10-17T16:11:57.319Z,22.53
2022-10-17T16:12:29.249Z,22.47
2022-10-17T16:12:51.155Z,22.53
2022-10-17T16:13:23.374Z,22.50
2022-10-17T16:13:53.890Z,22.49
2022-10-17T16:14:18.276Z,22.53
2022-10-17T16:14:40.118Z,22.59
2022-10-17T16:15:01.760Z,22.54
2022-10-17T16:15:26.617Z,22.57
2022-10-17T16:15:48.388Z,22.60
2022-10-17T16:16:12.468Z,22.57
2022-10-17T16:16:34.531Z,22.59
2022-10-17T16:16:56.399Z,22.58
2022-10-17T16:17:18.268Z,22.62
2022-10-17T16:17:40.207Z,22.64
2022-10-17T16:18:04.372Z,22.62
2022-10-17T16:18:29.067Z,22.62
2022-10-17T16:18:50.824Z,22.58
2022-10-17T16:19:12.653Z,22.64
2022-10-17T16:19:34.446Z,22.65
2022-10-17T16:19:56.056Z,22.64
2022-10-17T16:20:17.740Z,22.63
2022-10-17T16:20:39.964Z,22.66
2022-10-17T16:21:01.715Z,22.70
2022-10-17T16:21:27.865Z,22.72
2022-10-17T16:21:49.848Z,22.72
2022-10-17T16:22:32.647Z,22.76
2022-10-17T16:23:00.146Z,22.70
2022-10-17T16:23:21.970Z,22.75
2022-10-17T16:23:44.658Z,22.76
2022-10-17T16:24:07.076Z,22.80
2022-10-17T16:24:28.870Z,22.80
2022-10-17T16:24:50.783Z,22.75
2022-10-17T16:25:26.886Z,22.72
2022-10-17T16:25:48.716Z,22.63
2022-10-17T16:26:10.716Z,22.67
2022-10-17T16:26:33.238Z,22.69
2022-10-17T16:26:55.014Z,22.68
2022-10-17T16:27:16.847Z,22.68
2022-10-17T16:27:39.302Z,22.65
2022-10-17T16:28:01.987Z,22.67
2022-10-17T16:28:23.779Z,22.67
2022-10-17T16:28:46.515Z,22.69
2022-10-17T16:29:10.233Z,22.67
2022-10-17T16:29:32.237Z,22.72
2022-10-17T16:29:54.056Z,22.76
2022-10-17T16:30:16.155Z,22.79
2022-10-17T16:30:42.787Z,22.78
2022-10-17T16:31:04.607Z,22.81
2022-10-17T16:31:33.318Z,22.84
2022-10-17T16:31:55.070Z,22.82
2022-10-17T16:32:16.849Z,22.85
2022-10-17T16:32:38.786Z,22.82
2022-10-17T16:33:00.559Z,22.81
2022-10-17T16:33:22.256Z,22.82
2022-10-17T16:33:44.020Z,22.84
2022-10-17T16:34:07.031Z,22.87
2022-10-17T16:34:30.826Z,22.87
2022-10-17T16:34:52.604Z,22.89
2022-10-17T16:35:27.257Z,22.89
2022-10-17T16:35:49.783Z,22.90
2022-10-17T16:36:11.595Z,22.86
2022-10-17T16:36:33.399Z,22.90
2022-10-17T16:36:55.147Z,22.90
2022-10-17T16:37:16.972Z,22.90
2022-10-17T16:37:38.709Z,22.94
2022-10-17T16:38:00.376Z,22.96
2022-10-17T16:38:22.196Z,22.95
2022-10-17T16:38:44.605Z,22.98
2022-10-17T16:39:06.939Z,22.96
2022-10-17T16:39:55.171Z,22.99
2022-10-17T16:40:17.711Z,22.95
2022-10-17T16:40:40.424Z,23.00
2022-10-17T16:41:02.310Z,22.98
2022-10-17T16:41:32.326Z,23.01
2022-10-17T16:41:56.286Z,23.02
2022-10-17T16:42:20.914Z,23.03
2022-10-17T16:42:42.986Z,23.03
2022-10-17T16:43:04.939Z,23.05
2022-10-17T16:43:27.339Z,22.97
2022-10-17T16:43:51.330Z,23.02
2022-10-17T16:44:14.735Z,23.04
2022-10-17T16:44:36.536Z,23.06
2022-10-17T16:44:58.460Z,23.05
2022-10-17T16:45:22.579Z,23.07
2022-10-17T16:45:44.269Z,23.08
2022-10-17T16:46:06.079Z,23.08
2022-10-17T16:46:29.921Z,23.10
2022-10-17T16:46:51.644Z,23.10
2022-10-17T16:47:13.415Z,23.08
2022-10-17T16:47:35.030Z,22.98
2022-10-17T16:47:56.855Z,22.99
2022-10-17T16:48:18.606Z,22.97
2022-10-17T16:49:07.554Z,23.02
2022-10-17T16:49:29.160Z,23.00
2022-10-17T16:49:50.968Z,22.99
2022-10-17T16:50:13.270Z,23.01
2022-10-17T16:50:39.799Z,23.01
2022-10-17T16:51:02.529Z,23.05
2022-10-17T16:51:24.929Z,23.04
2022-10-17T16:51:46.776Z,23.04
2022-10-17T16:52:08.950Z,23.01
2022-10-17T16:52:30.931Z,23.02
2022-10-17T16:52:52.777Z,23.03
2022-10-17T16:53:14.520Z,23.06
2022-10-17T16:53:40.137Z,23.04
2022-10-17T16:54:02.749Z,23.08
2022-10-17T16:54:24.499Z,23.02
2022-10-17T16:54:46.297Z,23.04
2022-10-17T16:55:10.032Z,23.03
2022-10-17T16:55:31.810Z,23.02
2022-10-17T16:56:04.136Z,22.99
2022-10-17T16:56:29.896Z,22.99
2022-10-17T16:56:51.586Z,23.00
2022-10-17T16:57:13.464Z,22.99
2022-10-17T16:57:35.402Z,23.02
2022-10-17T16:57:57.277Z,23.00
2022-10-17T16:58:19.039Z,23.01
2022-10-17T16:58:42.435Z,22.96
2022-10-17T16:59:04.437Z,22.95
2022-10-17T16:59:26.256Z,22.93
2022-10-17T16:59:48.006Z,22.97
2022-10-17T17:00:12.211Z,22.96
2022-10-17T17:00:34.006Z,23.00
2022-10-17T17:00:55.908Z,22.99
2022-10-17T17:01:20.891Z,23.01
2022-10-17T17:01:42.686Z,23.03
2022-10-17T17:02:04.796Z,23.03
2022-10-17T17:02:26.559Z,23.05
2022-10-17T17:02:49.067Z,23.06
2022-10-17T17:03:10.806Z,23.04
2022-10-17T17:03:36.607Z,23.05
2022-10-17T17:03:58.467Z,23.06
2022-10-17T17:04:20.247Z,23.00
2022-10-17T17:04:42.028Z,22.93
2022-10-17T17:05:03.866Z,22.96
2022-10-17T17:05:25.714Z,22.98
2022-10-17T17:05:51.999Z,23.01
2022-10-17T17:06:17.609Z,22.97
2022-10-17T17:06:40.168Z,23.02
2022-10-17T17:07:01.936Z,23.04
2022-10-17T17:07:24.777Z,23.05
2022-10-17T17:07:48.193Z,23.09
2022-10-17T17:08:12.521Z,23.03
2022-10-17T17:08:37.437Z,22.94
2022-10-17T17:08:59.139Z,22.91
2022-10-17T17:09:20.876Z,22.89
2022-10-17T17:09:42.804Z,22.94
2022-10-17T17:10:05.684Z,22.95
2022-10-17T17:10:27.769Z,22.96
2022-10-17T17:10:51.372Z,22.86
2022-10-17T17:11:15.890Z,22.93
2022-10-17T17:11:38.665Z,22.96
2022-10-17T17:12:00.590Z,22.99
2022-10-17T17:12:23.200Z,23.00
2022-10-17T17:12:45.241Z,22.93
2022-10-17T17:13:07.305Z,22.96
2022-10-17T17:13:30.405Z,22.95
2022-10-17T17:13:52.769Z,22.96
2022-10-17T17:14:15.089Z,22.99
2022-10-17T17:14:37.409Z,22.97
2022-10-17T17:14:59.390Z,22.93
2022-10-17T17:15:21.190Z,22.98
2022-10-17T17:15:43.196Z,22.89
2022-10-17T17:16:09.275Z,22.85
2022-10-17T17:16:32.858Z,22.73
2022-10-17T17:16:54.679Z,22.77
2022-10-17T17:17:24.657Z,22.71
2022-10-17T17:18:02.667Z,22.71
2022-10-17T17:18:26.819Z,22.71
2022-10-17T17:18:51.537Z,22.72
2022-10-17T17:19:17.446Z,22.70
2022-10-17T17:19:39.206Z,22.71
2022-10-17T17:20:00.969Z,22.74
2022-10-17T17:20:22.970Z,22.73
2022-10-17T17:20:44.769Z,22.78
2022-10-17T17:21:08.388Z,22.82
2022-10-17T17:21:31.748Z,22.75
2022-10-17T17:21:53.556Z,22.72
2022-10-17T17:22:15.387Z,22.70
2022-10-17T17:22:37.160Z,22.66
2022-10-17T17:22:58.926Z,22.73
2022-10-17T17:23:20.676Z,22.77
2022-10-17T17:23:43.616Z,22.78
2022-10-17T17:24:06.534Z,22.75
2022-10-17T17:24:29.129Z,22.76
2022-10-17T17:24:51.057Z,22.80
2022-10-17T17:25:12.837Z,22.83
2022-10-17T17:25:35.350Z,22.87
2022-10-17T17:26:02.706Z,22.85
2022-10-17T17:26:26.186Z,22.87
2022-10-17T17:26:53.430Z,22.85
2022-10-17T17:27:15.189Z,22.86
2022-10-17T17:27:36.937Z,22.81
2022-10-17T17:27:58.564Z,22.87
2022-10-17T17:28:20.346Z,22.90
2022-10-17T17:28:42.927Z,22.89
2022-10-17T17:29:05.311Z,22.85
2022-10-17T17:29:27.310Z,22.90
2022-10-17T17:29:49.136Z,22.84
2022-10-17T17:30:11.647Z,22.80
2022-10-17T17:30:36.319Z,22.80
2022-10-17T17:30:58.716Z,22.86
2022-10-17T17:31:24.287Z,22.85
2022-10-17T17:31:46.006Z,22.82
2022-10-17T17:32:07.857Z,22.81
2022-10-17T17:32:29.716Z,22.86
2022-10-17T17:32:51.505Z,22.89
2022-10-17T17:33:13.169Z,22.89
2022-10-17T17:33:37.091Z,22.92
2022-10-17T17:33:59.369Z,22.94
2022-10-17T17:34:21.157Z,22.95
2022-10-17T17:34:42.927Z,22.92
2022-10-17T17:35:05.130Z,22.93
2022-10-17T17:35:28.477Z,22.93
2022-10-17T17:36:01.384Z,22.95
2022-10-17T17:36:29.011Z,22.94
2022-10-17T17:36:50.865Z,22.97
2022-10-17T17:37:12.721Z,22.90
2022-10-17T17:37:34.588Z,22.92
2022-10-17T17:37:56.427Z,22.95
2022-10-17T17:38:18.228Z,22.95
2022-10-17T17:38:41.580Z,22.97
2022-10-17T17:39:07.304Z,23.01
2022-10-17T17:39:29.125Z,23.01
2022-10-17T17:39:50.897Z,22.93
2022-10-17T17:40:12.811Z,22.84
2022-10-17T17:40:34.788Z,22.79
2022-10-17T17:40:57.408Z,22.79
2022-10-17T17:41:21.115Z,22.81
2022-10-17T17:41:44.666Z,22.84
2022-10-17T17:42:06.531Z,22.81
2022-10-17T17:42:28.361Z,22.78
2022-10-17T17:42:50.327Z,22.84
2022-10-17T17:43:12.301Z,22.87
2022-10-17T17:43:34.089Z,22.83
2022-10-17T17:43:56.640Z,22.88
2022-10-17T17:44:18.409Z,22.94
2022-10-17T17:44:40.231Z,22.96
2022-10-17T17:45:02.047Z,22.97
2022-10-17T17:45:23.797Z,22.94
2022-10-17T17:45:45.726Z,22.96
2022-10-17T17:46:07.943Z,22.95
2022-10-17T17:46:29.818Z,22.95
2022-10-17T17:46:51.707Z,22.95
2022-10-17T17:47:13.487Z,22.89